DCUTE EDHL-EDXW
Flight info
| Callsign | DCUTE |
|---|---|
| Flight time | 0h 33m |
| Altitude | 18000 |
| Route | HAM2A HAM M852 SOKWO T814 EXNEL DCT OLDIP |
| Aircraft | B350/L-SBGRW/S |
Departure
| Time | 2026-05-09 18:34 |
|---|---|
| Airport | Lübeck Blankensee Airport (EDHL) |
Arrival
| Time | 2026-05-09 19:07 |
|---|---|
| Airport | Westerland Sylt Airport (EDXW) |
| Time | Latitude | Longitude | Altitude | Speed | Heading |
|---|---|---|---|---|---|
| 2026-05-09 18:04 | 53.80591 | 10.70477 | 48 ft | 0 kts | 222° |
| 2026-05-09 18:30 | 53.80591 | 10.70476 | 48 ft | 1 kts | 222° |
| 2026-05-09 18:30 | 53.80586 | 10.70461 | 48 ft | 2 kts | 271° |
| 2026-05-09 18:31 | 53.80600 | 10.70429 | 48 ft | 6 kts | 307° |
| 2026-05-09 18:31 | 53.80558 | 10.70333 | 48 ft | 8 kts | 216° |
| 2026-05-09 18:31 | 53.80484 | 10.70398 | 48 ft | 15 kts | 142° |
| 2026-05-09 18:31 | 53.80425 | 10.70468 | 48 ft | 1 kts | 146° |
| 2026-05-09 18:32 | 53.80376 | 10.70525 | 48 ft | 15 kts | 145° |
| 2026-05-09 18:33 | 53.80301 | 10.70614 | 48 ft | 8 kts | 138° |
| 2026-05-09 18:33 | 53.80291 | 10.70662 | 48 ft | 0 kts | 72° |
| 2026-05-09 18:33 | 53.80336 | 10.70897 | 48 ft | 71 kts | 72° |
| 2026-05-09 18:34 | 53.80597 | 10.72226 | 180 ft | 141 kts | 70° |
| 2026-05-09 18:34 | 53.80953 | 10.73930 | 967 ft | 152 kts | 74° |
| 2026-05-09 18:34 | 53.81271 | 10.75600 | 1819 ft | 148 kts | 75° |
| 2026-05-09 18:34 | 53.81578 | 10.77217 | 2630 ft | 147 kts | 76° |
| 2026-05-09 18:35 | 53.81909 | 10.78965 | 3459 ft | 147 kts | 76° |
| 2026-05-09 18:35 | 53.82218 | 10.80600 | 4164 ft | 149 kts | 75° |
| 2026-05-09 18:35 | 53.82555 | 10.82379 | 4842 ft | 155 kts | 75° |
| 2026-05-09 18:35 | 53.82902 | 10.84221 | 5511 ft | 159 kts | 75° |
| 2026-05-09 18:36 | 53.83242 | 10.86046 | 6159 ft | 163 kts | 75° |
| 2026-05-09 18:36 | 53.83586 | 10.87935 | 6812 ft | 166 kts | 75° |
| 2026-05-09 18:36 | 53.84240 | 10.89555 | 7458 ft | 169 kts | 32° |
| 2026-05-09 18:36 | 53.85450 | 10.89847 | 8151 ft | 171 kts | 341° |
| 2026-05-09 18:37 | 53.86400 | 10.88515 | 8805 ft | 172 kts | 301° |
| 2026-05-09 18:37 | 53.87083 | 10.86703 | 9426 ft | 178 kts | 302° |
| 2026-05-09 18:37 | 53.87826 | 10.84783 | 10019 ft | 186 kts | 302° |
| 2026-05-09 18:37 | 53.88628 | 10.82746 | 10137 ft | 211 kts | 303° |
| 2026-05-09 18:38 | 53.89525 | 10.80500 | 10136 ft | 216 kts | 303° |
| 2026-05-09 18:38 | 53.90420 | 10.78266 | 10136 ft | 218 kts | 303° |
| 2026-05-09 18:38 | 53.91311 | 10.76049 | 10131 ft | 217 kts | 303° |
| 2026-05-09 18:40 | 53.97043 | 10.61728 | 11638 ft | 191 kts | 302° |
| 2026-05-09 18:40 | 53.97834 | 10.59745 | 12241 ft | 195 kts | 302° |
| 2026-05-09 18:40 | 53.98613 | 10.57793 | 12944 ft | 192 kts | 302° |
| 2026-05-09 18:41 | 53.99372 | 10.55887 | 13632 ft | 189 kts | 302° |
| 2026-05-09 18:41 | 54.00116 | 10.54021 | 14248 ft | 187 kts | 301° |
| 2026-05-09 18:41 | 54.00845 | 10.52189 | 14832 ft | 188 kts | 301° |
| 2026-05-09 18:41 | 54.01608 | 10.50270 | 15395 ft | 190 kts | 301° |
| 2026-05-09 18:42 | 54.02351 | 10.48400 | 15939 ft | 191 kts | 301° |
| 2026-05-09 18:42 | 54.03116 | 10.46477 | 16466 ft | 193 kts | 301° |
| 2026-05-09 18:42 | 54.03905 | 10.44490 | 16988 ft | 194 kts | 301° |
| 2026-05-09 18:42 | 54.04676 | 10.42547 | 17505 ft | 195 kts | 301° |
| 2026-05-09 18:43 | 54.05477 | 10.40527 | 18005 ft | 198 kts | 301° |
| 2026-05-09 18:43 | 54.06327 | 10.38377 | 18129 ft | 214 kts | 301° |
| 2026-05-09 18:43 | 54.07204 | 10.36166 | 18136 ft | 224 kts | 301° |
| 2026-05-09 18:43 | 54.08133 | 10.33822 | 18132 ft | 228 kts | 300° |
| 2026-05-09 18:44 | 54.09087 | 10.31411 | 18130 ft | 231 kts | 300° |
| 2026-05-09 18:44 | 54.10024 | 10.29040 | 18132 ft | 232 kts | 300° |
| 2026-05-09 18:44 | 54.10996 | 10.26578 | 18125 ft | 231 kts | 300° |
| 2026-05-09 18:44 | 54.11931 | 10.24206 | 18123 ft | 232 kts | 300° |
| 2026-05-09 18:45 | 54.12906 | 10.21732 | 18122 ft | 233 kts | 301° |
| 2026-05-09 18:45 | 54.13859 | 10.19308 | 18120 ft | 233 kts | 300° |
| 2026-05-09 18:45 | 54.14819 | 10.16863 | 18124 ft | 234 kts | 300° |
| 2026-05-09 18:45 | 54.15795 | 10.14377 | 18125 ft | 235 kts | 300° |
| 2026-05-09 18:46 | 54.16766 | 10.11898 | 18132 ft | 234 kts | 300° |
| 2026-05-09 18:46 | 54.17705 | 10.09502 | 18128 ft | 233 kts | 300° |
| 2026-05-09 18:46 | 54.18655 | 10.07072 | 18121 ft | 233 kts | 300° |
| 2026-05-09 18:46 | 54.19577 | 10.04712 | 18115 ft | 232 kts | 300° |
| 2026-05-09 18:47 | 54.20527 | 10.02280 | 18121 ft | 231 kts | 300° |
| 2026-05-09 18:47 | 54.21480 | 9.99837 | 18121 ft | 231 kts | 300° |
| 2026-05-09 18:47 | 54.22393 | 9.97493 | 18124 ft | 230 kts | 300° |
| 2026-05-09 18:47 | 54.23326 | 9.95097 | 18125 ft | 230 kts | 300° |
| 2026-05-09 18:48 | 54.24234 | 9.92761 | 18125 ft | 229 kts | 300° |
| 2026-05-09 18:48 | 54.25135 | 9.90442 | 18121 ft | 229 kts | 300° |
| 2026-05-09 18:48 | 54.26079 | 9.88002 | 18113 ft | 228 kts | 300° |
| 2026-05-09 18:48 | 54.27013 | 9.85581 | 18111 ft | 228 kts | 300° |
| 2026-05-09 18:49 | 54.27929 | 9.83197 | 18129 ft | 227 kts | 300° |
| 2026-05-09 18:49 | 54.28852 | 9.80786 | 18113 ft | 227 kts | 300° |
| 2026-05-09 18:49 | 54.29713 | 9.78526 | 18127 ft | 227 kts | 300° |
| 2026-05-09 18:49 | 54.30631 | 9.76107 | 18109 ft | 226 kts | 299° |
| 2026-05-09 18:50 | 54.31537 | 9.73709 | 18117 ft | 225 kts | 299° |
| 2026-05-09 18:50 | 54.32425 | 9.71346 | 18113 ft | 226 kts | 299° |
| 2026-05-09 18:50 | 54.33308 | 9.68990 | 18124 ft | 226 kts | 299° |
| 2026-05-09 18:50 | 54.34168 | 9.66681 | 18123 ft | 226 kts | 299° |
| 2026-05-09 18:51 | 54.35072 | 9.64246 | 18123 ft | 226 kts | 299° |
| 2026-05-09 18:51 | 54.35931 | 9.61919 | 18122 ft | 226 kts | 298° |
| 2026-05-09 18:51 | 54.36824 | 9.59489 | 18122 ft | 227 kts | 298° |
| 2026-05-09 18:51 | 54.37727 | 9.57018 | 18125 ft | 230 kts | 298° |
| 2026-05-09 18:52 | 54.38567 | 9.54727 | 18105 ft | 209 kts | 298° |
| 2026-05-09 18:52 | 54.39388 | 9.52549 | 17967 ft | 192 kts | 299° |
| 2026-05-09 18:52 | 54.40156 | 9.50546 | 17578 ft | 189 kts | 299° |
| 2026-05-09 18:52 | 54.40912 | 9.48592 | 17228 ft | 192 kts | 300° |
| 2026-05-09 18:53 | 54.41726 | 9.46479 | 16894 ft | 199 kts | 300° |
| 2026-05-09 18:53 | 54.42555 | 9.44319 | 16566 ft | 207 kts | 300° |
| 2026-05-09 18:53 | 54.43386 | 9.42136 | 16245 ft | 214 kts | 300° |
| 2026-05-09 18:53 | 54.44269 | 9.39802 | 15914 ft | 221 kts | 300° |
| 2026-05-09 18:54 | 54.45160 | 9.37446 | 15550 ft | 223 kts | 300° |
| 2026-05-09 18:54 | 54.46061 | 9.35068 | 15155 ft | 225 kts | 300° |
| 2026-05-09 18:54 | 54.46990 | 9.32626 | 14752 ft | 226 kts | 300° |
| 2026-05-09 18:54 | 54.47890 | 9.30272 | 14388 ft | 225 kts | 300° |
| 2026-05-09 18:55 | 54.48793 | 9.27920 | 13999 ft | 223 kts | 300° |
| 2026-05-09 18:55 | 54.49707 | 9.25534 | 13619 ft | 222 kts | 300° |
| 2026-05-09 18:55 | 54.50583 | 9.23241 | 13234 ft | 221 kts | 300° |
| 2026-05-09 18:55 | 54.51480 | 9.20878 | 12838 ft | 221 kts | 300° |
| 2026-05-09 18:56 | 54.52385 | 9.18485 | 12437 ft | 220 kts | 300° |
| 2026-05-09 18:56 | 54.53240 | 9.16213 | 12051 ft | 220 kts | 300° |
| 2026-05-09 18:56 | 54.54089 | 9.13935 | 11670 ft | 220 kts | 300° |
| 2026-05-09 18:56 | 54.54979 | 9.11538 | 11266 ft | 220 kts | 300° |
| 2026-05-09 18:57 | 54.55836 | 9.09216 | 10884 ft | 224 kts | 300° |
| 2026-05-09 18:57 | 54.56720 | 9.06799 | 10493 ft | 227 kts | 300° |
| 2026-05-09 18:57 | 54.57600 | 9.04383 | 10105 ft | 230 kts | 300° |
| 2026-05-09 18:57 | 54.58482 | 9.01935 | 9713 ft | 231 kts | 300° |
| 2026-05-09 18:58 | 54.59390 | 8.99404 | 9312 ft | 230 kts | 300° |
| 2026-05-09 18:58 | 54.60272 | 8.96942 | 8918 ft | 229 kts | 300° |
| 2026-05-09 18:58 | 54.61134 | 8.94523 | 8525 ft | 229 kts | 300° |
| 2026-05-09 18:58 | 54.62026 | 8.92022 | 8121 ft | 228 kts | 300° |
| 2026-05-09 18:59 | 54.62877 | 8.89620 | 7733 ft | 227 kts | 300° |
| 2026-05-09 18:59 | 54.63721 | 8.87232 | 7343 ft | 226 kts | 300° |
| 2026-05-09 18:59 | 54.64555 | 8.84870 | 6953 ft | 225 kts | 300° |
| 2026-05-09 18:59 | 54.65363 | 8.82569 | 6573 ft | 224 kts | 300° |
| 2026-05-09 19:00 | 54.66166 | 8.80272 | 6185 ft | 220 kts | 300° |
| 2026-05-09 19:00 | 54.67733 | 8.75766 | 5414 ft | 214 kts | 300° |
| 2026-05-09 19:00 | 54.68507 | 8.73536 | 5023 ft | 209 kts | 300° |
| 2026-05-09 19:01 | 54.69238 | 8.71423 | 4634 ft | 202 kts | 300° |
| 2026-05-09 19:01 | 54.69962 | 8.69341 | 4233 ft | 195 kts | 300° |
| 2026-05-09 19:01 | 54.70657 | 8.67338 | 3843 ft | 190 kts | 300° |
| 2026-05-09 19:01 | 54.71336 | 8.65381 | 3453 ft | 188 kts | 300° |
| 2026-05-09 19:02 | 54.72012 | 8.63412 | 3087 ft | 188 kts | 300° |
| 2026-05-09 19:02 | 54.72706 | 8.61347 | 3019 ft | 199 kts | 300° |
| 2026-05-09 19:02 | 54.73447 | 8.59252 | 3007 ft | 206 kts | 303° |
| 2026-05-09 19:02 | 54.74233 | 8.57151 | 2997 ft | 207 kts | 303° |
| 2026-05-09 19:03 | 54.75082 | 8.54987 | 2999 ft | 211 kts | 309° |
| 2026-05-09 19:03 | 54.76140 | 8.53102 | 3007 ft | 219 kts | 319° |
| 2026-05-09 19:03 | 54.77322 | 8.51416 | 2999 ft | 220 kts | 323° |
| 2026-05-09 19:03 | 54.78555 | 8.49824 | 2872 ft | 214 kts | 325° |
| 2026-05-09 19:04 | 54.79746 | 8.48339 | 2610 ft | 203 kts | 326° |
| 2026-05-09 19:04 | 54.80855 | 8.46969 | 2354 ft | 194 kts | 326° |
| 2026-05-09 19:04 | 54.81953 | 8.45615 | 2095 ft | 187 kts | 327° |
| 2026-05-09 19:04 | 54.82973 | 8.44359 | 1848 ft | 175 kts | 327° |
| 2026-05-09 19:05 | 54.83943 | 8.43164 | 1611 ft | 163 kts | 327° |
| 2026-05-09 19:05 | 54.84841 | 8.42057 | 1405 ft | 142 kts | 327° |
| 2026-05-09 19:05 | 54.85611 | 8.41105 | 1201 ft | 124 kts | 327° |
| 2026-05-09 19:05 | 54.86387 | 8.40145 | 1040 ft | 127 kts | 327° |
| 2026-05-09 19:06 | 54.87044 | 8.39334 | 852 ft | 107 kts | 327° |
| 2026-05-09 19:06 | 54.87706 | 8.38514 | 700 ft | 102 kts | 328° |
| 2026-05-09 19:06 | 54.88317 | 8.37727 | 572 ft | 107 kts | 327° |
| 2026-05-09 19:06 | 54.88945 | 8.36949 | 432 ft | 108 kts | 328° |
| 2026-05-09 19:07 | 54.89611 | 8.36144 | 262 ft | 105 kts | 328° |
| 2026-05-09 19:07 | 54.90220 | 8.35399 | 103 ft | 104 kts | 328° |
| 2026-05-09 19:07 | 54.90765 | 8.34741 | 31 ft | 60 kts | 324° |
| 2026-05-09 19:07 | 54.91015 | 8.34436 | 28 ft | 32 kts | 323° |
| 2026-05-09 19:08 | 54.91200 | 8.34203 | 28 ft | 31 kts | 324° |
| 2026-05-09 19:08 | 54.91311 | 8.34036 | 28 ft | 10 kts | 244° |
| 2026-05-09 19:08 | 54.91264 | 8.33878 | 28 ft | 18 kts | 242° |
| 2026-05-09 19:08 | 54.91185 | 8.33642 | 25 ft | 25 kts | 241° |
| 2026-05-09 19:09 | 54.91094 | 8.33364 | 28 ft | 27 kts | 240° |
| 2026-05-09 19:09 | 54.91128 | 8.33178 | 28 ft | 20 kts | 359° |
| 2026-05-09 19:09 | 54.91141 | 8.33178 | 28 ft | 0 kts | 359° |
| 2026-05-09 19:09 | 54.91098 | 8.33179 | 28 ft | 10 kts | 358° |
| 2026-05-09 19:10 | 54.91056 | 8.33189 | 28 ft | 1 kts | 255° |
| 2026-05-09 19:10 | 54.91002 | 8.33078 | 28 ft | 19 kts | 244° |
| 2026-05-09 19:10 | 54.91084 | 8.32857 | 26 ft | 24 kts | 310° |
| 2026-05-09 19:10 | 54.91184 | 8.32658 | 25 ft | 18 kts | 311° |
| 2026-05-09 19:11 | 54.91263 | 8.32559 | 25 ft | 14 kts | 334° |
| 2026-05-09 19:11 | 54.91326 | 8.32528 | 25 ft | 0 kts | 329° |
| 2026-05-09 19:11 | 54.91327 | 8.32519 | 25 ft | 0 kts | 249° |